createdAt,value
2022-09-02T00:01:31.607Z,62.20
2022-09-02T00:04:10.259Z,62.58
2022-09-02T00:06:37.540Z,62.00
2022-09-02T00:09:06.698Z,61.67
2022-09-02T00:11:35.169Z,61.43
2022-09-02T00:14:08.401Z,61.10
2022-09-02T00:16:35.491Z,61.06
2022-09-02T00:19:02.763Z,61.34
2022-09-02T00:21:31.572Z,61.33
2022-09-02T00:23:58.203Z,61.58
2022-09-02T00:26:24.741Z,61.56
2022-09-02T00:28:56.356Z,61.54
2022-09-02T00:31:24.788Z,61.16
2022-09-02T00:33:51.948Z,61.10
2022-09-02T00:36:19.020Z,61.15
2022-09-02T00:38:45.646Z,62.03
2022-09-02T00:41:12.811Z,61.44
2022-09-02T00:43:51.805Z,61.69
2022-09-02T00:46:21.436Z,62.74
2022-09-02T00:48:55.960Z,62.75
2022-09-02T00:51:23.468Z,63.01
2022-09-02T00:53:51.062Z,62.65
2022-09-02T00:56:30.990Z,63.73
2022-09-02T00:58:58.891Z,63.50
2022-09-02T01:01:27.302Z,64.10
2022-09-02T01:03:54.335Z,63.36
2022-09-02T01:06:27.206Z,64.11
2022-09-02T01:09:01.380Z,62.87
2022-09-02T01:11:36.144Z,64.17
2022-09-02T01:14:02.783Z,64.65
2022-09-02T01:16:42.144Z,66.15
2022-09-02T01:19:16.315Z,64.59
2022-09-02T01:21:51.507Z,63.81
2022-09-02T01:24:20.555Z,63.50
2022-09-02T01:26:47.680Z,63.16
2022-09-02T01:29:16.504Z,63.60
2022-09-02T01:31:43.199Z,64.13
2022-09-02T01:34:10.061Z,64.38
2022-09-02T01:36:40.380Z,64.06
2022-09-02T01:39:08.209Z,63.96
2022-09-02T01:41:34.791Z,64.04
2022-09-02T01:44:02.073Z,63.83
2022-09-02T01:46:28.818Z,64.91
2022-09-02T01:48:55.605Z,63.69
2022-09-02T01:51:22.201Z,63.99
2022-09-02T01:53:48.951Z,64.11
2022-09-02T01:56:16.228Z,64.51
2022-09-02T01:58:43.117Z,64.12
2022-09-02T02:01:10.232Z,64.78
2022-09-02T02:03:37.591Z,65.14
2022-09-02T02:06:12.819Z,67.57
2022-09-02T02:08:40.072Z,67.89
2022-09-02T02:11:06.833Z,67.76
2022-09-02T02:13:33.681Z,66.11
2022-09-02T02:16:00.337Z,66.67
2022-09-02T02:18:27.555Z,66.47
2022-09-02T02:20:54.111Z,66.30
2022-09-02T02:23:20.891Z,65.50
2022-09-02T02:25:47.436Z,65.31
2022-09-02T02:28:14.674Z,65.65
2022-09-02T02:30:41.350Z,65.48
2022-09-02T02:33:07.896Z,65.82
2022-09-02T02:35:34.883Z,65.80
2022-09-02T02:38:03.627Z,65.25
2022-09-02T02:40:30.924Z,64.96
2022-09-02T02:42:57.617Z,64.52
2022-09-02T02:45:24.999Z,64.80
2022-09-02T02:47:52.351Z,66.72
2022-09-02T02:50:20.512Z,65.57
2022-09-02T02:52:47.311Z,66.07
2022-09-02T02:55:15.097Z,65.40
2022-09-02T02:57:43.399Z,65.54
2022-09-02T03:00:30.470Z,65.67
2022-09-02T03:03:02.677Z,65.60
2022-09-02T03:05:31.217Z,66.00
2022-09-02T03:07:58.082Z,66.05
2022-09-02T03:10:25.334Z,66.25
2022-09-02T03:12:52.557Z,68.37
2022-09-02T03:15:21.065Z,69.45
2022-09-02T03:17:48.498Z,71.33
2022-09-02T03:20:17.043Z,72.15
2022-09-02T03:22:45.700Z,73.05
2022-09-02T03:25:16.505Z,72.63
2022-09-02T03:27:47.245Z,70.45
2022-09-02T03:30:18.238Z,70.33
2022-09-02T03:32:45.467Z,71.10
2022-09-02T03:35:17.331Z,70.08
2022-09-02T03:37:43.929Z,69.48
2022-09-02T03:40:14.409Z,68.78
2022-09-02T03:42:41.119Z,69.12
2022-09-02T03:45:11.431Z,69.38
2022-09-02T03:47:43.939Z,68.55
2022-09-02T03:50:10.818Z,70.17
2022-09-02T03:52:37.505Z,72.24
2022-09-02T03:55:05.902Z,70.30
2022-09-02T03:57:35.699Z,69.70
2022-09-02T04:00:08.479Z,69.69
2022-09-02T04:02:35.716Z,69.30
2022-09-02T04:05:02.841Z,69.64
2022-09-02T04:07:29.403Z,69.85
2022-09-02T04:09:56.434Z,69.58
2022-09-02T04:12:23.388Z,69.85
2022-09-02T04:14:52.421Z,69.55
2022-09-02T04:17:24.113Z,69.30
2022-09-02T04:19:50.759Z,69.27
2022-09-02T04:22:17.364Z,69.22
2022-09-02T04:24:43.889Z,69.46
2022-09-02T04:27:10.472Z,69.67
2022-09-02T04:29:37.126Z,71.40
2022-09-02T04:32:04.043Z,70.23
2022-09-02T04:34:30.598Z,69.69
2022-09-02T04:36:57.176Z,69.83
2022-09-02T04:39:23.756Z,69.43
2022-09-02T04:41:51.606Z,69.59
2022-09-02T04:44:18.163Z,69.38
2022-09-02T04:46:44.787Z,69.29
2022-09-02T04:49:11.358Z,69.25
2022-09-02T04:51:38.029Z,69.62
2022-09-02T04:54:04.899Z,70.17
2022-09-02T04:56:32.460Z,70.28
2022-09-02T04:58:59.354Z,70.16
2022-09-02T05:01:29.177Z,70.31
2022-09-02T05:03:55.884Z,70.13
2022-09-02T05:06:28.619Z,70.14
2022-09-02T05:08:56.530Z,69.88
2022-09-02T05:11:28.500Z,69.86
2022-09-02T05:13:57.314Z,69.96
2022-09-02T05:16:27.316Z,69.66
2022-09-02T05:18:54.448Z,69.87
2022-09-02T05:21:23.212Z,70.05
2022-09-02T05:23:51.413Z,71.13
2022-09-02T05:26:22.681Z,71.67
2022-09-02T05:28:50.591Z,71.08
2022-09-02T05:31:19.598Z,71.05
2022-09-02T05:33:46.698Z,71.75
2022-09-02T05:36:22.032Z,73.34
2022-09-02T05:38:49.970Z,74.19
2022-09-02T05:41:23.070Z,74.02
2022-09-02T05:43:52.184Z,72.66
2022-09-02T05:46:21.303Z,72.75
2022-09-02T05:49:06.583Z,72.54
2022-09-02T05:51:48.273Z,73.09
2022-09-02T05:54:18.284Z,72.27
2022-09-02T05:56:48.179Z,71.23
2022-09-02T05:59:15.498Z,71.34
2022-09-02T06:01:42.282Z,70.89
2022-09-02T06:04:08.983Z,70.87
2022-09-02T06:06:38.575Z,71.15
2022-09-02T06:09:08.539Z,71.08
2022-09-02T06:11:40.284Z,70.90
2022-09-02T06:14:10.388Z,70.96
2022-09-02T06:16:38.215Z,70.13
2022-09-02T06:19:05.223Z,70.65
2022-09-02T06:21:32.318Z,71.47
2022-09-02T06:23:59.496Z,71.39
2022-09-02T06:26:26.444Z,70.26
2022-09-02T06:28:53.042Z,70.73
2022-09-02T06:31:22.203Z,70.75
2022-09-02T06:33:52.503Z,70.54
2022-09-02T06:36:20.283Z,70.42
2022-09-02T06:38:49.412Z,69.06
2022-09-02T06:41:19.699Z,68.67
2022-09-02T06:43:46.374Z,69.03
2022-09-02T06:46:25.666Z,68.48
2022-09-02T06:48:52.326Z,68.14
2022-09-02T06:51:24.716Z,67.98
2022-09-02T06:53:53.480Z,67.29
2022-09-02T06:56:20.551Z,67.15
2022-09-02T06:58:47.145Z,66.86
2022-09-02T07:01:25.750Z,67.08
2022-09-02T07:04:11.611Z,65.95
2022-09-02T07:06:44.827Z,65.97
2022-09-02T07:09:13.928Z,65.03
2022-09-02T07:11:40.524Z,64.89
2022-09-02T07:14:07.202Z,64.48
2022-09-02T07:16:38.385Z,64.67
2022-09-02T07:19:09.915Z,63.77
2022-09-02T07:21:41.073Z,63.05
2022-09-02T07:24:10.049Z,62.62
2022-09-02T07:26:36.744Z,62.78
2022-09-02T07:29:04.923Z,62.62
2022-09-02T07:31:31.502Z,61.65
2022-09-02T07:33:59.165Z,61.61
2022-09-02T07:36:27.653Z,60.07
2022-09-02T07:38:54.923Z,59.02
2022-09-02T07:41:22.586Z,59.35
2022-09-02T07:43:51.600Z,59.43
2022-09-02T07:46:19.685Z,59.54
2022-09-02T07:48:46.743Z,58.20
2022-09-02T07:51:13.313Z,58.50
2022-09-02T07:53:40.538Z,57.93
2022-09-02T07:56:07.200Z,56.51
2022-09-02T07:58:33.953Z,57.28
2022-09-02T08:01:00.574Z,56.60
2022-09-02T08:03:27.942Z,55.74
2022-09-02T08:05:57.289Z,56.72
2022-09-02T08:08:27.561Z,54.67
2022-09-02T08:10:55.400Z,55.55
2022-09-02T08:13:23.206Z,56.31
2022-09-02T08:15:54.575Z,56.79
2022-09-02T08:18:22.489Z,56.13
2022-09-02T08:20:49.625Z,57.96
2022-09-02T08:23:25.570Z,57.14
2022-09-02T08:25:52.493Z,54.08
2022-09-02T08:28:19.062Z,53.28
2022-09-02T08:30:46.009Z,54.06
2022-09-02T08:33:12.681Z,52.11
2022-09-02T08:35:39.283Z,52.65
2022-09-02T08:38:06.037Z,52.93
2022-09-02T08:40:41.944Z,51.71
2022-09-02T08:43:27.519Z,52.21
2022-09-02T08:45:57.967Z,52.60
2022-09-02T08:48:42.786Z,53.05
2022-09-02T08:51:16.979Z,53.18
2022-09-02T08:53:51.186Z,52.58
2022-09-02T08:56:18.603Z,54.44
2022-09-02T08:58:50.511Z,52.98
2022-09-02T09:01:24.601Z,50.68
2022-09-02T09:04:11.543Z,49.81
2022-09-02T09:06:57.073Z,50.55
2022-09-02T09:09:42.040Z,51.14
2022-09-02T09:12:09.021Z,49.59
2022-09-02T09:15:03.564Z,49.47
2022-09-02T09:17:44.706Z,49.15
2022-09-02T09:20:18.064Z,46.57
2022-09-02T09:22:46.195Z,46.84
2022-09-02T09:25:15.562Z,47.00
2022-09-02T09:27:45.468Z,47.00
2022-09-02T09:30:15.558Z,48.00
2022-09-02T09:32:56.918Z,48.38
2022-09-02T09:35:24.795Z,45.99
2022-09-02T09:37:53.447Z,46.56
2022-09-02T09:40:25.802Z,45.19
2022-09-02T09:42:57.095Z,45.91
2022-09-02T09:45:32.688Z,45.69
2022-09-02T09:48:16.961Z,45.46
2022-09-02T09:50:45.408Z,45.62
2022-09-02T09:53:22.055Z,46.51
2022-09-02T09:56:06.592Z,46.39
2022-09-02T09:58:42.212Z,46.60
2022-09-02T10:01:20.995Z,46.15
2022-09-02T10:03:53.233Z,44.31
2022-09-02T10:06:41.874Z,44.11
2022-09-02T10:09:14.387Z,43.38
2022-09-02T10:11:54.450Z,41.74
2022-09-02T10:14:21.110Z,42.77
2022-09-02T10:17:20.931Z,43.35
2022-09-02T10:20:04.862Z,43.43
2022-09-02T10:22:58.846Z,42.82
2022-09-02T10:25:34.245Z,43.16
2022-09-02T10:28:31.806Z,41.04
2022-09-02T10:31:15.480Z,41.36
2022-09-02T10:33:54.277Z,40.91
2022-09-02T10:36:33.002Z,42.11
2022-09-02T10:39:16.288Z,40.10
2022-09-02T10:41:48.004Z,40.78
2022-09-02T10:44:31.225Z,41.66
2022-09-02T10:47:31.930Z,41.38
2022-09-02T10:50:20.950Z,41.93
2022-09-02T10:52:50.921Z,41.71
2022-09-02T10:55:37.975Z,42.48
2022-09-02T10:58:12.022Z,42.77
2022-09-02T11:00:41.724Z,42.95
2022-09-02T11:03:21.722Z,42.41
2022-09-02T11:05:55.950Z,41.63
2022-09-02T11:08:52.036Z,42.95
2022-09-02T11:11:42.307Z,41.60
2022-09-02T11:14:17.656Z,41.34
2022-09-02T11:17:42.391Z,41.65
2022-09-02T11:20:30.773Z,42.10
2022-09-02T11:23:04.008Z,40.96
2022-09-02T11:25:41.424Z,41.24
2022-09-02T11:28:43.673Z,42.52
2022-09-02T11:31:20.055Z,44.18
2022-09-02T11:33:59.069Z,42.80
2022-09-02T11:36:29.415Z,42.01
2022-09-02T11:39:04.013Z,42.06
2022-09-02T11:41:40.584Z,39.96
2022-09-02T11:44:31.998Z,39.56
2022-09-02T11:47:33.762Z,40.79
2022-09-02T11:50:41.697Z,41.12
2022-09-02T11:53:12.521Z,39.57
2022-09-02T11:55:49.226Z,40.59
2022-09-02T11:58:36.833Z,40.40
2022-09-02T12:01:43.741Z,38.11
2022-09-02T12:07:08.703Z,39.53
2022-09-02T12:09:49.735Z,36.67
2022-09-02T12:12:41.526Z,100.00
2022-09-02T12:15:17.644Z,100.00
2022-09-02T12:17:51.966Z,100.00
2022-09-02T12:20:37.478Z,100.00
2022-09-02T12:23:05.191Z,100.00
2022-09-02T12:25:34.129Z,100.00
2022-09-02T12:28:27.455Z,100.00
2022-09-02T12:31:07.933Z,100.00
2022-09-02T12:33:37.831Z,35.72
2022-09-02T12:36:06.446Z,37.68
2022-09-02T12:38:38.784Z,37.22
2022-09-02T12:41:05.304Z,37.53
2022-09-02T12:43:53.179Z,37.56
2022-09-02T12:46:26.020Z,38.23
2022-09-02T12:49:12.180Z,37.39
2022-09-02T12:52:01.571Z,37.21
2022-09-02T12:54:43.024Z,37.60
2022-09-02T12:57:11.110Z,39.44
2022-09-02T12:59:40.479Z,38.97
2022-09-02T13:02:28.158Z,39.42
2022-09-02T13:05:24.516Z,39.12
2022-09-02T13:08:21.645Z,38.75
2022-09-02T13:11:25.727Z,38.97
2022-09-02T13:14:15.365Z,39.10
2022-09-02T13:16:41.891Z,38.74
2022-09-02T13:19:19.536Z,39.94
2022-09-02T13:22:18.065Z,40.21
2022-09-02T13:25:08.995Z,40.88
2022-09-02T13:27:59.749Z,41.74
2022-09-02T13:30:56.306Z,42.97
2022-09-02T13:33:23.203Z,41.65
2022-09-02T13:35:55.935Z,37.70
2022-09-02T13:38:29.149Z,37.50
2022-09-02T13:40:55.925Z,37.81
2022-09-02T13:43:26.951Z,38.22
2022-09-02T13:45:59.954Z,38.64
2022-09-02T13:48:34.214Z,39.32
2022-09-02T13:51:12.887Z,39.21
2022-09-02T13:54:11.686Z,39.67
2022-09-02T13:56:32.725Z,39.78
2022-09-02T13:58:59.526Z,40.65
2022-09-02T14:01:34.089Z,40.00
2022-09-02T14:06:43.543Z,39.59
2022-09-02T14:09:24.202Z,39.45
2022-09-02T14:11:53.025Z,39.36
2022-09-02T14:14:25.330Z,40.41
2022-09-02T14:16:52.756Z,41.30
2022-09-02T14:19:22.111Z,39.77
2022-09-02T14:21:53.963Z,39.73
2022-09-02T14:24:23.684Z,39.50
2022-09-02T14:26:53.580Z,39.70
2022-09-02T14:29:21.654Z,39.26
2022-09-02T14:32:12.535Z,39.79
2022-09-02T14:34:42.060Z,40.17
2022-09-02T14:37:29.506Z,40.05
2022-09-02T14:40:12.129Z,40.84
2022-09-02T14:42:57.543Z,41.17
2022-09-02T14:45:35.104Z,41.06
2022-09-02T14:48:21.965Z,41.66
2022-09-02T14:50:49.052Z,40.78
2022-09-02T14:53:22.488Z,39.64
2022-09-02T14:55:56.453Z,40.08
2022-09-02T14:58:26.935Z,40.34
2022-09-02T15:00:56.776Z,40.94
2022-09-02T15:03:24.110Z,40.85
2022-09-02T15:05:52.290Z,40.39
2022-09-02T15:08:18.954Z,41.04
2022-09-02T15:10:45.859Z,40.26
2022-09-02T15:13:15.085Z,40.97
2022-09-02T15:15:41.767Z,40.66
2022-09-02T15:18:09.221Z,40.98
2022-09-02T15:20:36.370Z,40.87
2022-09-02T15:23:03.338Z,40.95
2022-09-02T15:25:30.059Z,40.88
2022-09-02T15:27:56.656Z,41.13
2022-09-02T15:30:23.246Z,41.37
2022-09-02T15:32:50.345Z,41.79
2022-09-02T15:35:17.021Z,41.73
2022-09-02T15:37:43.603Z,42.20
2022-09-02T15:40:10.882Z,42.53
2022-09-02T15:42:38.812Z,42.80
2022-09-02T15:45:09.091Z,42.84
2022-09-02T15:47:36.932Z,42.42
2022-09-02T15:50:05.583Z,42.74
2022-09-02T15:52:34.499Z,42.35
2022-09-02T15:55:01.409Z,41.85
2022-09-02T15:57:30.094Z,41.67
2022-09-02T15:59:57.067Z,42.08
2022-09-02T16:02:23.816Z,42.28
2022-09-02T16:04:50.509Z,42.95
2022-09-02T16:07:17.379Z,42.21
2022-09-02T16:09:44.161Z,42.66
2022-09-02T16:12:11.222Z,43.16
2022-09-02T16:14:37.833Z,43.26
2022-09-02T16:17:04.524Z,42.85
2022-09-02T16:19:31.214Z,43.82
2022-09-02T16:21:58.567Z,43.07
2022-09-02T16:24:26.281Z,43.26
2022-09-02T16:26:53.185Z,43.86
2022-09-02T16:29:20.159Z,43.12
2022-09-02T16:32:02.307Z,43.33
2022-09-02T16:34:36.137Z,43.57
2022-09-02T16:37:02.684Z,43.67
2022-09-02T16:39:29.281Z,43.41
2022-09-02T16:41:56.039Z,43.13
2022-09-02T16:44:25.574Z,43.60
2022-09-02T16:46:53.279Z,43.05
2022-09-02T16:49:22.195Z,43.52
2022-09-02T16:51:50.721Z,43.14
2022-09-02T16:54:30.932Z,43.87
2022-09-02T16:56:59.475Z,43.79
2022-09-02T16:59:26.353Z,43.74
2022-09-02T17:01:53.194Z,43.88
2022-09-02T17:04:19.776Z,43.88
2022-09-02T17:06:46.385Z,43.99
2022-09-02T17:09:12.930Z,43.93
2022-09-02T17:11:41.352Z,44.75
2022-09-02T17:14:16.551Z,44.38
2022-09-02T17:16:45.848Z,44.86
2022-09-02T17:19:17.114Z,44.40
2022-09-02T17:21:47.091Z,44.61
2022-09-02T17:24:15.394Z,45.29
2022-09-02T17:26:43.902Z,45.25
2022-09-02T17:29:26.304Z,45.00
2022-09-02T17:31:59.415Z,45.80
2022-09-02T17:34:26.645Z,45.58
2022-09-02T17:36:53.447Z,46.10
2022-09-02T17:39:20.750Z,46.19
2022-09-02T17:41:59.281Z,46.60
2022-09-02T17:44:44.083Z,46.70
2022-09-02T17:47:14.906Z,47.21
2022-09-02T17:49:44.764Z,46.84
2022-09-02T17:52:13.879Z,46.75
2022-09-02T17:54:41.651Z,47.85
2022-09-02T17:57:20.232Z,48.60
2022-09-02T17:59:56.751Z,49.73
2022-09-02T18:02:44.692Z,49.79
2022-09-02T18:05:23.148Z,50.06
2022-09-02T18:08:14.537Z,50.76
2022-09-02T18:10:57.578Z,50.73
2022-09-02T18:13:31.847Z,52.18
2022-09-02T18:16:37.128Z,52.52
2022-09-02T18:19:25.745Z,52.03
2022-09-02T18:22:27.720Z,52.13
2022-09-02T18:25:08.500Z,52.36
2022-09-02T18:27:59.963Z,52.73
2022-09-02T18:30:38.731Z,52.66
2022-09-02T18:33:14.613Z,53.14
2022-09-02T18:35:58.470Z,52.53
2022-09-02T18:38:39.785Z,53.29
2022-09-02T18:41:12.227Z,52.76
2022-09-02T18:44:15.099Z,52.47
2022-09-02T18:46:52.790Z,52.70
2022-09-02T18:49:22.541Z,53.20
2022-09-02T18:51:55.915Z,53.87
2022-09-02T18:54:28.563Z,54.85
2022-09-02T18:56:58.644Z,55.96
2022-09-02T18:59:59.431Z,55.66
2022-09-02T19:02:35.792Z,56.78
2022-09-02T19:05:07.198Z,57.90
2022-09-02T19:07:54.709Z,57.50
2022-09-02T19:10:23.116Z,56.96
2022-09-02T19:12:49.998Z,56.12
2022-09-02T19:15:17.490Z,56.97
2022-09-02T19:17:44.192Z,56.57
2022-09-02T19:20:11.086Z,56.52
2022-09-02T19:22:43.019Z,55.63
2022-09-02T19:25:20.716Z,55.76
2022-09-02T19:27:50.665Z,55.37
2022-09-02T19:30:20.355Z,55.42
2022-09-02T19:32:51.830Z,55.42
2022-09-02T19:35:22.588Z,55.62
2022-09-02T19:37:53.556Z,55.37
2022-09-02T19:40:25.767Z,55.58
2022-09-02T19:42:54.180Z,55.78
2022-09-02T19:45:22.177Z,56.07
2022-09-02T19:48:06.475Z,56.11
2022-09-02T19:50:36.678Z,56.07
2022-09-02T19:53:03.423Z,56.84
2022-09-02T19:55:30.213Z,56.69
2022-09-02T19:57:57.062Z,56.92
2022-09-02T20:00:23.737Z,56.81
2022-09-02T20:02:51.585Z,56.26
2022-09-02T20:05:20.458Z,56.63
2022-09-02T20:07:47.867Z,56.45
2022-09-02T20:10:15.134Z,56.56
2022-09-02T20:12:47.583Z,56.27
2022-09-02T20:15:15.063Z,56.25
2022-09-02T20:17:42.562Z,55.99
2022-09-02T20:20:17.538Z,55.07
2022-09-02T20:22:48.771Z,55.36
2022-09-02T20:25:16.030Z,55.46
2022-09-02T20:28:11.850Z,55.24
2022-09-02T20:30:45.003Z,55.04
2022-09-02T20:33:17.937Z,55.63
2022-09-02T20:36:02.077Z,55.68
2022-09-02T20:39:01.404Z,56.58
2022-09-02T20:41:39.768Z,55.65
2022-09-02T20:44:24.823Z,55.83
2022-09-02T20:47:07.611Z,55.09
2022-09-02T20:49:54.182Z,54.86
2022-09-02T20:52:31.492Z,54.66
2022-09-02T20:55:33.548Z,54.50
2022-09-02T20:58:28.455Z,54.21
2022-09-02T21:01:09.613Z,54.47
2022-09-02T21:04:11.964Z,54.70
2022-09-02T21:06:46.203Z,55.11
2022-09-02T21:09:49.245Z,54.61
2022-09-02T21:12:27.558Z,54.39
2022-09-02T21:15:22.652Z,54.00
2022-09-02T21:17:54.452Z,54.55
2022-09-02T21:20:43.044Z,53.95
2022-09-02T21:23:42.535Z,54.22
2022-09-02T21:26:24.327Z,53.95
2022-09-02T21:29:04.580Z,53.75
2022-09-02T21:31:37.977Z,54.45
2022-09-02T21:34:16.976Z,53.75
2022-09-02T21:36:43.962Z,53.38
2022-09-02T21:39:16.884Z,53.92
2022-09-02T21:42:06.672Z,53.72
2022-09-02T21:45:09.801Z,53.81
2022-09-02T21:48:06.113Z,54.23
2022-09-02T21:50:53.219Z,54.64
2022-09-02T21:53:41.117Z,54.70
2022-09-02T21:56:28.894Z,53.75
2022-09-02T21:59:04.583Z,53.87
2022-09-02T22:01:43.988Z,54.22
2022-09-02T22:04:23.878Z,53.41
2022-09-02T22:07:00.133Z,53.57
2022-09-02T22:09:32.021Z,54.31
2022-09-02T22:12:11.515Z,54.32
2022-09-02T22:14:50.328Z,53.73
2022-09-02T22:17:32.166Z,53.72
2022-09-02T22:20:02.678Z,53.55
2022-09-02T22:22:39.692Z,53.71
2022-09-02T22:25:16.629Z,54.68
2022-09-02T22:27:57.946Z,54.22
2022-09-02T22:30:24.670Z,54.71
2022-09-02T22:33:07.056Z,54.73
2022-09-02T22:35:41.583Z,55.45
2022-09-02T22:38:27.785Z,55.67
2022-09-02T22:41:05.763Z,55.38
2022-09-02T22:43:44.279Z,55.53
2022-09-02T22:46:40.184Z,55.17
2022-09-02T22:49:49.117Z,54.02
2022-09-02T22:52:46.532Z,54.21
2022-09-02T22:55:15.220Z,54.09
2022-09-02T22:57:46.700Z,54.34
2022-09-02T23:00:15.607Z,55.38
2022-09-02T23:03:09.045Z,55.33
2022-09-02T23:06:19.990Z,55.40
2022-09-02T23:08:47.678Z,55.73
2022-09-02T23:11:59.622Z,55.76
2022-09-02T23:14:53.192Z,54.87
2022-09-02T23:17:43.611Z,55.68
2022-09-02T23:20:32.728Z,56.19
2022-09-02T23:23:17.902Z,56.44
2022-09-02T23:26:00.290Z,56.48
2022-09-02T23:28:47.883Z,56.58
2022-09-02T23:31:16.397Z,56.80
2022-09-02T23:33:55.883Z,56.37
2022-09-02T23:36:52.330Z,56.46
2022-09-02T23:39:44.122Z,56.97
2022-09-02T23:42:12.262Z,56.79
2022-09-02T23:44:38.840Z,57.04
2022-09-02T23:47:15.281Z,57.16
2022-09-02T23:49:57.888Z,56.86
2022-09-02T23:52:56.402Z,57.07
2022-09-02T23:55:32.990Z,56.88
2022-09-02T23:58:05.901Z,56.82
